Time;durP1;ratioP1;P1;durP2;ratioP2;P2;SDS_P1;SDS_P2;PMS_P1;PMS_P2;Temp;Humidity;BMP_temperature;BMP_pressure;BME280_temperature;BME280_humidity;BME280_pressure;Samples;Min_cycle;Max_cycle;Signal;HPM_P1;HPM_P2
2024/03/09 00:00:17;;;;;;;15.90;9.75;;;;;;;4.87;59.01;95161.22;5107076;28;20030;-79
2024/03/09 00:02:48;;;;;;;13.00;9.20;;;;;;;5.02;58.92;95176.34;5107364;28;20099;-79
2024/03/09 00:05:14;;;;;;;19.20;10.00;;;;;;;5.03;58.96;95175.19;5090901;28;20042;-79
2024/03/09 00:07:39;;;;;;;13.70;7.85;;;;;;;5.04;58.92;95174.78;5092295;27;20034;-79
2024/03/09 00:10:11;;;;;;;15.38;9.18;;;;;;;5.09;58.93;95178.28;5094145;27;20072;-79
2024/03/09 00:12:37;;;;;;;16.05;9.02;;;;;;;5.04;59.00;95172.03;5129165;27;20072;-79
2024/03/09 00:15:02;;;;;;;14.57;8.65;;;;;;;5.14;58.78;95183.31;5111010;27;20023;-79
2024/03/09 00:17:30;;;;;;;14.95;9.52;;;;;;;5.12;58.89;95178.25;5129372;27;20023;-79
2024/03/09 00:19:59;;;;;;;14.52;9.85;;;;;;;5.17;58.60;95185.25;5110335;27;20027;-79
2024/03/09 00:22:25;;;;;;;16.60;8.98;;;;;;;5.12;58.65;95169.31;5111056;27;20038;-80
2024/03/09 00:24:54;;;;;;;14.10;10.15;;;;;;;5.17;58.60;95175.13;5112186;27;20447;-79
2024/03/09 00:27:24;;;;;;;16.33;10.40;;;;;;;5.18;58.51;95175.91;5130109;27;20023;-79
2024/03/09 00:29:56;;;;;;;14.75;10.38;;;;;;;5.11;58.61;95168.53;5111174;27;20065;-79
2024/03/09 00:32:27;;;;;;;15.70;10.70;;;;;;;5.12;58.42;95163.88;5093749;27;20034;-79
2024/03/09 00:34:53;;;;;;;13.50;9.98;;;;;;;5.06;58.68;95172.44;5111242;27;20030;-81
2024/03/09 00:37:18;;;;;;;14.77;10.10;;;;;;;5.07;58.88;95173.22;5109667;27;20033;-80
2024/03/09 00:39:44;;;;;;;16.38;10.23;;;;;;;5.12;58.51;95164.63;5110744;27;20016;-79
2024/03/09 00:42:14;;;;;;;13.95;9.40;;;;;;;5.17;58.45;95164.22;5109879;27;20061;-79
2024/03/09 00:44:41;;;;;;;16.23;10.00;;;;;;;5.11;58.35;95163.09;5094205;27;20102;-79
2024/03/09 00:47:06;;;;;;;17.52;9.43;;;;;;;5.12;58.60;95166.59;5128760;27;20023;-79
2024/03/09 00:49:31;;;;;;;15.55;10.25;;;;;;;5.11;58.61;95165.81;5128334;27;20110;-79
2024/03/09 00:52:00;;;;;;;17.17;10.35;;;;;;;5.03;59.09;95164.28;5093421;27;20049;-78
2024/03/09 00:54:26;;;;;;;16.65;9.75;;;;;;;5.02;59.09;95173.63;5109796;27;20035;-79
2024/03/09 00:56:52;;;;;;;17.30;10.40;;;;;;;5.06;59.00;95177.13;5093150;27;20035;-78
2024/03/09 00:59:18;;;;;;;17.58;10.27;;;;;;;5.00;58.84;95157.69;5109340;27;20046;-79
2024/03/09 01:01:43;;;;;;;14.65;9.63;;;;;;;5.08;58.79;95174.78;5110334;27;20019;-79
2024/03/09 01:04:09;;;;;;;16.83;9.82;;;;;;;5.05;58.95;95165.44;5117295;27;20185;-80
2024/03/09 01:06:37;;;;;;;17.15;9.65;;;;;;;4.99;58.99;95166.25;5110456;27;20031;-80
2024/03/09 01:09:03;;;;;;;12.45;8.15;;;;;;;5.06;58.58;95156.09;5093001;27;20043;-79
2024/03/09 01:11:29;;;;;;;13.93;9.27;;;;;;;5.07;58.93;95152.19;5127755;27;20409;-79
2024/03/09 01:13:56;;;;;;;14.90;8.85;;;;;;;5.07;58.83;95143.25;5128381;27;20080;-79
2024/03/09 01:16:22;;;;;;;19.48;8.88;;;;;;;5.04;58.84;95144.03;5127531;27;20330;-79
2024/03/09 01:18:47;;;;;;;12.48;8.30;;;;;;;5.11;58.83;95151.41;5128365;27;20098;-79
2024/03/09 01:21:14;;;;;;;13.80;8.60;;;;;;;5.14;58.74;95145.94;5109219;27;20030;-79
2024/03/09 01:23:40;;;;;;;14.52;9.52;;;;;;;5.24;58.30;95136.16;5128353;27;20023;-79
2024/03/09 01:26:05;;;;;;;14.50;8.48;;;;;;;5.13;58.84;95133.47;5109358;27;20091;-79
2024/03/09 01:28:31;;;;;;;14.27;9.57;;;;;;;5.13;59.31;95138.16;5127812;27;20579;-78
2024/03/09 01:30:57;;;;;;;16.60;8.95;;;;;;;5.19;59.44;95144.75;5128086;27;20107;-78
2024/03/09 01:33:24;;;;;;;20.35;12.05;;;;;;;5.14;59.96;95140.47;5092092;27;20481;-79
2024/03/09 01:35:50;;;;;;;20.00;13.20;;;;;;;5.08;60.14;95136.63;5128169;27;20098;-79
2024/03/09 01:38:19;;;;;;;19.48;12.38;;;;;;;5.11;60.16;95140.53;5091648;27;20023;-80
2024/03/09 01:40:45;;;;;;;20.33;12.05;;;;;;;5.11;60.04;95138.56;5092963;27;20556;-78
2024/03/09 01:43:11;;;;;;;18.35;12.63;;;;;;;5.08;60.41;95139.34;5127534;27;20107;-79
2024/03/09 01:45:36;;;;;;;17.90;11.95;;;;;;;5.04;60.18;95131.16;5108803;27;20019;-78
2024/03/09 01:48:03;;;;;;;18.77;12.00;;;;;;;5.13;60.13;95135.44;5109179;27;20102;-79
2024/03/09 01:50:29;;;;;;;19.63;11.93;;;;;;;5.18;59.80;95138.53;5108567;27;20031;-78
2024/03/09 01:52:55;;;;;;;18.25;11.77;;;;;;;5.15;60.15;95143.97;5127752;27;20342;-79
2024/03/09 01:55:20;;;;;;;19.67;12.35;;;;;;;5.13;60.14;95130.75;5127059;27;20072;-79
2024/03/09 01:57:46;;;;;;;18.48;12.05;;;;;;;5.15;60.03;95133.84;5128142;27;20095;-79
2024/03/09 02:00:16;;;;;;;22.48;12.73;;;;;;;5.12;60.30;95129.22;5108131;27;20216;-77
2024/03/09 02:02:41;;;;;;;19.23;11.85;;;;;;;5.02;60.36;95125.34;5109267;27;20424;-77
2024/03/09 02:05:13;;;;;;;20.58;12.13;;;;;;;5.08;60.30;95133.91;5091874;27;20026;-79
2024/03/09 02:07:39;;;;;;;18.73;11.68;;;;;;;5.03;60.20;95132.34;5126927;27;20036;-79
2024/03/09 02:10:05;;;;;;;15.80;11.25;;;;;;;5.02;60.30;95132.75;5112690;27;20038;-79
2024/03/09 02:12:31;;;;;;;17.65;10.73;;;;;;;5.06;60.47;95137.03;5110479;27;20042;-78
2024/03/09 02:14:56;;;;;;;16.80;12.02;;;;;;;5.06;60.44;95134.28;5108854;27;20512;-77
2024/03/09 02:17:22;;;;;;;18.15;11.70;;;;;;;5.06;60.46;95137.03;5108287;27;20488;-78
2024/03/09 02:19:48;;;;;;;18.90;10.32;;;;;;;5.15;60.28;95138.53;5127179;27;20023;-78
2024/03/09 02:22:16;;;;;;;18.65;10.52;;;;;;;5.22;59.64;95139.28;5126862;27;20059;-78
2024/03/09 02:24:42;;;;;;;17.73;10.35;;;;;;;5.26;59.52;95131.84;5108563;27;20457;-78
2024/03/09 02:27:08;;;;;;;20.08;10.45;;;;;;;5.16;59.75;95134.63;5108473;27;20023;-78
2024/03/09 02:29:33;;;;;;;17.02;10.32;;;;;;;5.17;59.79;95136.97;5126210;27;20104;-78
2024/03/09 02:31:59;;;;;;;20.08;11.45;;;;;;;5.22;59.59;95135.78;5127053;27;20026;-78
2024/03/09 02:34:25;;;;;;;15.52;10.02;;;;;;;5.25;59.51;95132.25;5126557;27;20106;-78
2024/03/09 02:36:52;;;;;;;14.98;10.15;;;;;;;5.23;59.60;95137.34;5108597;27;20022;-78
2024/03/09 02:39:17;;;;;;;14.80;9.15;;;;;;;5.24;59.55;95138.88;5091027;27;20129;-79
2024/03/09 02:41:43;;;;;;;12.23;9.00;;;;;;;5.21;59.53;95137.72;5107980;27;20110;-80
2024/03/09 02:44:12;;;;;;;16.77;9.25;;;;;;;5.26;59.04;95137.31;5108388;27;20030;-77
2024/03/09 02:46:39;;;;;;;13.80;9.05;;;;;;;5.21;59.14;95137.72;5126057;27;20023;-77
2024/03/09 02:49:05;;;;;;;13.25;8.38;;;;;;;5.21;59.02;95132.25;5108269;27;20019;-76
2024/03/09 02:51:32;;;;;;;14.07;9.25;;;;;;;5.32;58.77;95135.72;5107790;27;20046;-78
2024/03/09 02:53:58;;;;;;;16.25;9.40;;;;;;;5.22;59.14;95138.53;5091167;27;20076;-77
2024/03/09 02:56:24;;;;;;;14.15;9.63;;;;;;;5.15;59.13;95122.19;5091088;28;20521;-77
2024/03/09 02:58:49;;;;;;;16.70;9.57;;;;;;;5.17;59.21;95136.19;5107645;28;20041;-77
2024/03/09 03:01:17;;;;;;;15.05;9.60;;;;;;;5.15;59.29;95138.53;5090336;28;20034;-77
2024/03/09 03:04:02;;;;;;;17.40;9.73;;;;;;;5.14;59.29;95135.03;5126047;28;20065;-80
2024/03/09 03:06:29;;;;;;;13.07;9.18;;;;;;;5.19;59.20;95137.34;5126565;28;20031;-79
2024/03/09 03:09:01;;;;;;;14.00;8.75;;;;;;;5.20;59.15;95129.94;5125918;28;20034;-79
2024/03/09 03:11:27;;;;;;;14.50;9.48;;;;;;;5.10;59.27;95108.97;5108410;28;20079;-79
2024/03/09 03:13:54;;;;;;;12.82;8.73;;;;;;;5.26;59.28;95122.91;5126089;28;20030;-79
2024/03/09 03:16:28;;;;;;;13.52;8.88;;;;;;;5.27;59.19;95111.59;5126557;28;20034;-78
2024/03/09 03:18:54;;;;;;;12.98;8.48;;;;;;;5.29;58.92;95119.41;5114632;28;20095;-79
2024/03/09 03:21:20;;;;;;;14.27;8.80;;;;;;;5.26;59.31;95125.63;5107443;28;20019;-78
2024/03/09 03:23:48;;;;;;;13.20;8.95;;;;;;;5.26;59.22;95122.91;5108182;28;20041;-78
2024/03/09 03:26:14;;;;;;;18.33;9.00;;;;;;;5.31;59.12;95127.94;5107702;28;20041;-79
2024/03/09 03:28:41;;;;;;;14.27;8.65;;;;;;;5.26;59.18;95123.66;5107813;28;20054;-78
2024/03/09 03:31:08;;;;;;;14.20;8.93;;;;;;;5.20;59.47;95129.94;5107597;28;20118;-78
2024/03/09 03:33:38;;;;;;;13.82;8.80;;;;;;;5.22;59.13;95128.38;5107547;28;20219;-78
2024/03/09 03:36:06;;;;;;;13.85;9.30;;;;;;;5.29;59.41;95144.69;5126689;28;20020;-79
2024/03/09 03:38:34;;;;;;;13.80;8.88;;;;;;;5.31;59.15;95144.28;5125600;28;20122;-78
2024/03/09 03:41:00;;;;;;;14.43;9.13;;;;;;;5.27;59.09;95138.84;5126271;27;20021;-78
2024/03/09 03:43:26;;;;;;;15.43;9.93;;;;;;;5.27;59.10;95140.81;5129963;27;20026;-78
2024/03/09 03:45:51;;;;;;;17.20;10.40;;;;;;;5.27;59.25;95138.84;5111475;27;20023;-79
2024/03/09 03:48:19;;;;;;;19.20;11.48;;;;;;;5.15;59.37;95127.63;5111680;27;20080;-79
2024/03/09 03:50:44;;;;;;;17.33;10.48;;;;;;;5.31;59.04;95127.94;5111739;27;20023;-79
2024/03/09 03:53:10;;;;;;;14.60;9.02;;;;;;;5.27;59.17;95127.16;5129908;27;20027;-78
2024/03/09 03:55:37;;;;;;;14.25;9.07;;;;;;;5.23;59.21;95123.72;5110745;27;20507;-78
2024/03/09 03:58:04;;;;;;;16.52;9.50;;;;;;;5.11;59.61;95127.66;5111586;27;20063;-77
2024/03/09 04:00:30;;;;;;;14.70;9.15;;;;;;;5.13;59.73;95119.84;5110480;27;20055;-77
2024/03/09 04:02:55;;;;;;;15.93;9.10;;;;;;;5.13;59.83;95125.31;5094192;27;20027;-78
2024/03/09 04:05:20;;;;;;;15.27;9.35;;;;;;;5.17;59.73;95119.84;5129427;27;20087;-77
2024/03/09 04:07:46;;;;;;;15.07;9.38;;;;;;;5.15;60.14;95124.91;5110370;27;20023;-78
2024/03/09 04:10:13;;;;;;;15.32;9.50;;;;;;;5.11;60.21;95124.16;5110912;27;20097;-78
2024/03/09 04:12:40;;;;;;;17.33;9.27;;;;;;;5.12;60.10;95123.00;5129223;27;20023;-78
2024/03/09 04:15:09;;;;;;;16.73;9.32;;;;;;;5.28;59.82;95126.03;5111395;27;20045;-77
2024/03/09 04:17:36;;;;;;;17.65;9.75;;;;;;;5.23;59.78;95129.16;5110503;27;20076;-77
2024/03/09 04:20:04;;;;;;;19.02;10.38;;;;;;;5.22;59.89;95122.16;5129511;27;20023;-78
2024/03/09 04:22:31;;;;;;;16.73;9.57;;;;;;;5.23;59.98;95129.16;5129490;27;20023;-77
2024/03/09 04:24:57;;;;;;;17.55;9.93;;;;;;;5.22;59.81;95124.88;5134968;27;20115;-77
2024/03/09 04:27:23;;;;;;;16.33;9.57;;;;;;;5.26;60.06;95128.34;5110989;27;20026;-77
2024/03/09 04:29:48;;;;;;;15.02;8.70;;;;;;;5.27;59.75;95121.72;5128347;27;20027;-78
2024/03/09 04:32:14;;;;;;;15.50;9.23;;;;;;;5.36;59.30;95124.03;5093891;27;20393;-78
2024/03/09 04:34:40;;;;;;;16.35;9.23;;;;;;;5.27;59.48;95124.44;5128795;27;20015;-78
2024/03/09 04:37:07;;;;;;;17.52;9.85;;;;;;;5.36;59.28;95130.25;5110501;27;20103;-78
2024/03/09 04:39:38;;;;;;;14.95;9.63;;;;;;;5.38;59.29;95130.63;5110772;27;20043;-78
2024/03/09 04:42:04;;;;;;;17.55;10.35;;;;;;;5.37;59.58;95123.63;5110728;27;20096;-77
2024/03/09 04:44:31;;;;;;;17.30;9.85;;;;;;;5.41;59.16;95129.06;5128918;27;20085;-78
2024/03/09 04:46:57;;;;;;;16.27;10.55;;;;;;;5.40;59.30;95122.06;5109824;27;20473;-77
2024/03/09 04:49:22;;;;;;;14.85;9.82;;;;;;;5.39;59.16;95117.75;5093187;27;20045;-77
2024/03/09 04:51:47;;;;;;;15.63;10.45;;;;;;;5.39;59.39;95125.94;5109748;27;20058;-79
2024/03/09 04:54:13;;;;;;;21.60;11.80;;;;;;;5.36;59.44;95129.47;5128600;27;20038;-76
2024/03/09 04:56:39;;;;;;;28.92;15.27;;;;;;;5.29;59.57;95125.63;5128467;27;20051;-77
2024/03/09 04:59:04;;;;;;;27.77;15.00;;;;;;;5.30;59.66;95135.34;5109883;27;20027;-77
2024/03/09 05:01:29;;;;;;;29.05;15.45;;;;;;;5.38;59.24;95130.63;5128291;27;20099;-79
2024/03/09 05:03:55;;;;;;;27.75;14.77;;;;;;;5.31;59.25;95115.09;5092380;27;20050;-79
2024/03/09 05:06:20;;;;;;;24.67;13.07;;;;;;;5.48;59.19;95129.78;5093048;27;20485;-78
2024/03/09 05:08:46;;;;;;;23.38;12.10;;;;;;;5.45;59.18;95127.88;5109210;27;20023;-78
2024/03/09 05:11:12;;;;;;;26.75;13.45;;;;;;;5.46;59.39;95129.41;5110116;27;20043;-79
2024/03/09 05:13:39;;;;;;;22.15;12.75;;;;;;;5.54;59.29;95128.19;5092618;27;20512;-79
2024/03/09 05:16:04;;;;;;;19.20;12.05;;;;;;;5.53;59.48;95129.38;5109855;27;20072;-78
2024/03/09 05:18:30;;;;;;;23.98;13.10;;;;;;;5.52;59.40;95127.81;5128140;27;20031;-79
2024/03/09 05:20:56;;;;;;;19.10;12.10;;;;;;;5.49;59.56;95131.34;5127590;27;20098;-78
2024/03/09 05:23:22;;;;;;;17.63;11.35;;;;;;;5.51;59.39;95134.44;5109636;27;20019;-78
2024/03/09 05:25:48;;;;;;;17.20;11.23;;;;;;;5.56;59.55;95135.97;5127260;27;20047;-78
2024/03/09 05:28:14;;;;;;;16.60;10.95;;;;;;;5.51;59.53;95137.19;5109700;27;20520;-76
2024/03/09 05:30:41;;;;;;;15.60;10.60;;;;;;;5.52;59.55;95129.78;5127325;27;20436;-77
2024/03/09 05:33:06;;;;;;;18.55;10.95;;;;;;;5.51;59.70;95131.72;5134465;27;20015;-77
2024/03/09 05:35:34;;;;;;;15.55;10.77;;;;;;;5.53;59.97;95137.56;5109385;27;20029;-77
2024/03/09 05:38:00;;;;;;;17.70;11.07;;;;;;;5.52;59.82;95135.22;5127469;27;20534;-77
2024/03/09 05:40:31;;;;;;;15.98;10.93;;;;;;;5.58;59.55;95133.63;5127874;27;20345;-78
2024/03/09 05:42:59;;;;;;;18.30;11.85;;;;;;;5.56;59.79;95141.41;5109022;27;20024;-78
2024/03/09 05:45:25;;;;;;;18.80;11.88;;;;;;;5.62;59.85;95139.03;5109668;27;20058;-78
2024/03/09 05:47:52;;;;;;;17.05;11.93;;;;;;;5.63;60.03;95141.41;5108619;27;20050;-78
2024/03/09 05:50:19;;;;;;;15.75;10.98;;;;;;;5.65;60.21;95130.84;5092597;27;20479;-78
2024/03/09 05:52:47;;;;;;;28.90;12.45;;;;;;;5.72;60.23;95141.69;5108675;27;20600;-78
2024/03/09 05:55:13;;;;;;;17.30;11.73;;;;;;;5.73;59.95;95148.72;5109224;27;20031;-78
2024/03/09 05:57:43;;;;;;;19.08;11.45;;;;;;;5.75;60.01;95145.59;5127288;27;20015;-78
2024/03/09 06:00:15;;;;;;;20.10;12.52;;;;;;;5.76;59.71;95147.16;5126488;27;20019;-78
2024/03/09 06:02:42;;;;;;;16.75;11.57;;;;;;;5.84;59.61;95145.91;5127448;27;20062;-78
2024/03/09 06:05:08;;;;;;;20.70;11.70;;;;;;;5.89;59.39;95153.66;5107786;27;20040;-77
2024/03/09 06:07:41;;;;;;;16.83;11.68;;;;;;;5.84;59.48;95148.63;5109181;27;20027;-78
2024/03/09 06:10:08;;;;;;;16.65;11.02;;;;;;;5.94;59.34;95153.28;5091708;27;20421;-78
2024/03/09 06:12:35;;;;;;;19.73;11.60;;;;;;;5.82;59.46;95140.09;5091337;27;20022;-77
2024/03/09 06:15:01;;;;;;;21.48;11.82;;;;;;;5.95;59.33;95157.56;5091861;27;20023;-77
2024/03/09 06:17:29;;;;;;;24.08;13.85;;;;;;;5.95;59.38;95163.00;5108213;27;20074;-77
2024/03/09 06:19:55;;;;;;;27.38;13.60;;;;;;;5.96;59.32;95159.09;5108993;27;20024;-77
2024/03/09 06:22:20;;;;;;;23.63;14.55;;;;;;;6.01;59.70;95166.09;5091088;27;20031;-77
2024/03/09 06:24:46;;;;;;;22.95;13.77;;;;;;;6.06;59.28;95158.25;5091701;27;20024;-77
2024/03/09 06:27:13;;;;;;;23.55;13.35;;;;;;;6.12;59.34;95172.25;5108071;27;20031;-78
2024/03/09 06:29:40;;;;;;;25.15;14.60;;;;;;;6.11;59.23;95176.16;5126396;27;20035;-76
2024/03/09 06:32:06;;;;;;;29.10;16.30;;;;;;;6.17;59.34;95168.31;5127015;27;20020;-77
2024/03/09 06:34:31;;;;;;;30.63;17.60;;;;;;;6.22;59.37;95170.59;5107724;28;20095;-77
2024/03/09 06:36:57;;;;;;;27.10;16.67;;;;;;;6.24;59.52;95168.25;5091614;27;20042;-76
2024/03/09 06:39:25;;;;;;;28.85;17.05;;;;;;;6.23;59.47;95166.69;5130599;27;20535;-80
2024/03/09 06:41:52;;;;;;;27.05;15.15;;;;;;;6.28;59.31;95171.72;5109171;27;20078;-77
2024/03/09 06:44:18;;;;;;;31.15;16.63;;;;;;;6.31;59.36;95177.16;5126636;27;20087;-78
2024/03/09 06:46:44;;;;;;;26.45;15.38;;;;;;;6.26;59.77;95182.28;5126285;27;20027;-77
2024/03/09 06:49:09;;;;;;;24.80;15.07;;;;;;;6.27;60.02;95176.41;5108119;28;20481;-77
2024/03/09 06:51:34;;;;;;;27.63;16.80;;;;;;;6.32;60.02;95183.41;5125757;27;20023;-79
2024/03/09 06:54:00;;;;;;;29.10;16.92;;;;;;;6.32;60.16;95186.13;5108086;27;20035;-77
2024/03/09 06:56:26;;;;;;;24.00;15.52;;;;;;;6.41;59.98;95188.38;5125935;27;20031;-78
2024/03/09 06:58:53;;;;;;;21.45;14.65;;;;;;;6.53;59.28;95190.63;5126820;27;20019;-80
2024/03/09 07:01:24;;;;;;;20.88;13.93;;;;;;;6.53;59.51;95188.66;5125594;27;20369;-77
2024/03/09 07:03:49;;;;;;;24.85;15.30;;;;;;;6.60;59.50;95188.63;5091649;28;20025;-77
2024/03/09 07:06:15;;;;;;;25.65;16.17;;;;;;;6.60;59.61;95190.56;5090900;28;20019;-77
2024/03/09 07:08:42;;;;;;;28.55;16.52;;;;;;;6.57;60.03;95199.56;5125746;28;20106;-77
2024/03/09 07:11:08;;;;;;;31.30;16.83;;;;;;;6.63;60.05;95198.72;5107895;28;20091;-77
2024/03/09 07:13:33;;;;;;;25.10;15.05;;;;;;;6.67;59.99;95197.91;5128461;28;20019;-77
2024/03/09 07:15:59;;;;;;;28.45;15.45;;;;;;;6.68;60.23;95191.28;5135644;27;20032;-77
2024/03/09 07:18:24;;;;;;;23.30;15.60;;;;;;;6.79;60.55;95186.47;5114614;27;20106;-79
2024/03/09 07:20:52;;;;;;;24.85;16.15;;;;;;;6.85;60.17;95185.63;5112988;27;20019;-79
2024/03/09 07:23:17;;;;;;;28.75;17.40;;;;;;;6.89;60.36;95185.59;5130505;27;20023;-78
2024/03/09 07:25:43;;;;;;;27.85;16.30;;;;;;;6.92;60.27;95192.97;5094353;27;20023;-76
2024/03/09 07:28:11;;;;;;;29.55;17.52;;;;;;;7.02;60.15;95189.34;5130440;27;20535;-78
2024/03/09 07:30:36;;;;;;;29.33;17.20;;;;;;;6.97;60.25;95187.06;5130010;27;20103;-78
2024/03/09 07:33:02;;;;;;;28.52;16.88;;;;;;;7.08;59.99;95195.91;5111817;27;20437;-78
2024/03/09 07:35:29;;;;;;;24.92;15.48;;;;;;;7.16;59.66;95197.38;5128392;27;20516;-76
2024/03/09 07:37:58;;;;;;;29.38;16.35;;;;;;;7.10;59.97;95206.44;5112317;27;20050;-80
2024/03/09 07:40:24;;;;;;;26.92;16.55;;;;;;;7.15;59.87;95195.81;5111996;27;20027;-76
2024/03/09 07:42:53;;;;;;;26.02;15.82;;;;;;;7.18;59.40;95194.25;5094590;27;20019;-77
2024/03/09 07:45:19;;;;;;;27.65;15.40;;;;;;;7.24;59.34;95198.09;5112221;27;20024;-78
2024/03/09 07:47:49;;;;;;;24.85;16.13;;;;;;;7.26;59.40;95189.47;5135356;27;20015;-76
2024/03/09 07:50:16;;;;;;;29.00;16.70;;;;;;;7.36;59.21;95186.59;5130745;27;20046;-75
2024/03/09 07:52:43;;;;;;;25.65;15.63;;;;;;;7.46;58.64;95190.41;5129339;27;20031;-76
2024/03/09 07:55:09;;;;;;;25.45;15.73;;;;;;;7.42;58.40;95197.88;5130572;27;20016;-77
2024/03/09 07:57:34;;;;;;;22.83;14.35;;;;;;;7.41;58.74;95196.31;5111100;27;20043;-77
2024/03/09 08:00:00;;;;;;;23.00;15.05;;;;;;;7.41;58.75;95199.06;5110867;27;20034;-78
2024/03/09 08:02:25;;;;;;;22.17;13.57;;;;;;;7.56;58.19;95200.41;5129488;27;20027;-76
2024/03/09 08:04:51;;;;;;;23.83;15.00;;;;;;;7.57;57.71;95199.25;5110738;27;20042;-77
2024/03/09 08:07:17;;;;;;;23.95;13.98;;;;;;;7.63;57.46;95196.81;5111457;27;20030;-77
2024/03/09 08:09:43;;;;;;;20.20;14.30;;;;;;;7.65;57.57;95192.47;5110667;27;20047;-77
2024/03/09 08:12:08;;;;;;;22.95;14.13;;;;;;;7.64;57.48;95201.88;5110215;27;20039;-79
2024/03/09 08:14:33;;;;;;;23.17;14.70;;;;;;;7.66;57.62;95215.16;5128267;27;20466;-76
2024/03/09 08:16:59;;;;;;;22.27;14.00;;;;;;;7.73;57.32;95204.88;5127988;27;20492;-77
2024/03/09 08:19:25;;;;;;;19.98;14.48;;;;;;;7.88;56.89;95202.72;5109820;27;20022;-78
2024/03/09 08:21:51;;;;;;;22.80;14.70;;;;;;;7.87;56.76;95203.13;5126860;27;20019;-78
2024/03/09 08:24:17;;;;;;;21.00;13.15;;;;;;;7.90;56.52;95205.81;5127975;27;20129;-77
2024/03/09 08:26:45;;;;;;;20.52;13.95;;;;;;;7.97;56.72;95205.72;5126539;27;20048;-78
2024/03/09 08:29:14;;;;;;;22.83;14.27;;;;;;;8.10;56.26;95203.19;5126421;27;20027;-77
2024/03/09 08:31:40;;;;;;;20.70;13.50;;;;;;;8.29;55.16;95211.91;5127956;27;20031;-78
2024/03/09 08:34:06;;;;;;;17.77;12.05;;;;;;;8.28;55.21;95207.63;5126904;27;20469;-78
2024/03/09 08:36:34;;;;;;;24.75;14.38;;;;;;;8.29;55.36;95201.72;5127599;27;20046;-77
2024/03/09 08:38:59;;;;;;;20.45;13.50;;;;;;;8.37;55.11;95196.91;5108655;27;20015;-76
2024/03/09 08:41:27;;;;;;;21.83;13.27;;;;;;;8.43;54.49;95198.78;5128183;27;20049;-78
2024/03/09 08:43:53;;;;;;;16.67;11.95;;;;;;;8.47;54.64;95190.50;5109895;27;20027;-80
2024/03/09 08:46:18;;;;;;;20.98;12.57;;;;;;;8.51;55.01;95199.44;5109291;27;20092;-84
2024/03/09 08:48:44;;;;;;;19.80;12.88;;;;;;;8.63;54.22;95195.34;5127826;27;20068;-79
2024/03/09 08:51:09;;;;;;;21.73;13.60;;;;;;;8.66;54.13;95197.22;5127539;27;20038;-78
2024/03/09 08:53:35;;;;;;;21.42;13.82;;;;;;;8.65;54.46;95196.44;5127527;27;20023;-79
2024/03/09 08:56:03;;;;;;;19.05;12.05;;;;;;;8.69;53.75;95196.41;5110067;27;20030;-79
2024/03/09 08:58:30;;;;;;;20.50;12.23;;;;;;;8.78;53.58;95191.94;5134103;27;20023;-80
2024/03/09 09:00:56;;;;;;;18.25;12.02;;;;;;;8.84;53.23;95189.47;5108416;27;20030;-79
2024/03/09 09:03:23;;;;;;;17.17;12.57;;;;;;;8.95;52.64;95198.28;5127503;27;20106;-79
2024/03/09 09:05:49;;;;;;;18.10;11.40;;;;;;;9.05;52.38;95193.78;5108872;27;20048;-78
2024/03/09 09:08:24;;;;;;;17.15;11.77;;;;;;;9.18;52.77;95177.50;5108808;27;20671;-77
2024/03/09 09:10:51;;;;;;;24.90;12.25;;;;;;;9.24;52.54;95186.78;5110194;27;20159;-77
2024/03/09 09:13:17;;;;;;;18.58;12.40;;;;;;;9.39;52.24;95190.78;5126486;27;20023;-77
2024/03/09 09:15:46;;;;;;;18.92;12.35;;;;;;;9.51;51.83;95189.34;5109050;27;20187;-77
2024/03/09 09:18:14;;;;;;;17.02;12.05;;;;;;;9.58;51.46;95189.22;5108363;27;20393;-77
2024/03/09 09:20:45;;;;;;;20.05;12.30;;;;;;;9.58;51.55;95187.25;5108959;27;20524;-77
2024/03/09 09:23:11;;;;;;;18.48;12.45;;;;;;;9.58;51.47;95189.22;5108633;27;20027;-77
2024/03/09 09:25:38;;;;;;;18.98;12.18;;;;;;;9.69;51.41;95183.50;5127136;27;20087;-78
2024/03/09 09:28:05;;;;;;;17.98;11.63;;;;;;;9.74;51.31;95181.00;5127217;27;20033;-78
2024/03/09 09:30:31;;;;;;;18.08;11.85;;;;;;;9.89;51.05;95176.00;5125955;27;20027;-78
2024/03/09 09:32:57;;;;;;;19.10;11.05;;;;;;;10.02;50.77;95173.34;5108682;27;20031;-78
2024/03/09 09:35:22;;;;;;;21.05;11.90;;;;;;;10.25;49.50;95175.97;5107861;27;20531;-78
2024/03/09 09:37:48;;;;;;;17.35;11.50;;;;;;;10.30;49.57;95182.94;5127277;27;20102;-78
2024/03/09 09:40:13;;;;;;;18.45;11.15;;;;;;;10.41;49.55;95185.44;5125603;27;20052;-78
2024/03/09 09:42:39;;;;;;;15.05;10.75;;;;;;;10.54;49.04;95191.78;5108237;27;20030;-78
2024/03/09 09:45:05;;;;;;;16.80;11.02;;;;;;;10.64;48.74;95180.50;5108332;27;20055;-78
2024/03/09 09:47:30;;;;;;;16.25;10.75;;;;;;;10.73;48.45;95177.16;5126172;27;20442;-78
2024/03/09 09:49:56;;;;;;;14.73;10.07;;;;;;;10.85;48.51;95175.69;5108415;27;20026;-79
2024/03/09 09:52:25;;;;;;;17.58;11.80;;;;;;;10.84;48.03;95176.91;5107311;27;20019;-77
2024/03/09 09:54:54;;;;;;;21.60;12.40;;;;;;;11.02;47.86;95187.44;5091716;27;20131;-77
2024/03/09 09:57:20;;;;;;;15.07;10.10;;;;;;;11.12;47.56;95181.63;5126241;27;20038;-77
2024/03/09 09:59:46;;;;;;;15.40;9.43;;;;;;;11.27;46.68;95184.75;5107641;27;20027;-79
2024/03/09 10:02:12;;;;;;;16.85;9.95;;;;;;;11.32;46.64;95173.22;5107252;27;20144;-76
2024/03/09 10:04:40;;;;;;;12.52;9.80;;;;;;;11.52;45.96;95177.78;5107194;27;20342;-76
2024/03/09 10:07:08;;;;;;;14.48;10.05;;;;;;;11.84;45.97;95185.91;5112115;27;20011;-79
2024/03/09 10:09:34;;;;;;;17.38;10.75;;;;;;;11.86;45.67;95177.97;5109926;27;20035;-76
2024/03/09 10:12:00;;;;;;;18.13;10.50;;;;;;;11.95;45.67;95171.84;5091174;27;20030;-78
2024/03/09 10:14:29;;;;;;;16.50;10.73;;;;;;;12.06;44.88;95175.03;5107020;27;20546;-79
2024/03/09 10:16:56;;;;;;;15.73;10.70;;;;;;;12.34;44.76;95181.66;5107501;27;20580;-77
2024/03/09 10:19:22;;;;;;;14.35;9.98;;;;;;;12.84;43.34;95177.25;5107059;27;20027;-77
2024/03/09 10:21:51;;;;;;;13.80;10.15;;;;;;;12.72;43.15;95172.53;5125469;27;20152;-78
2024/03/09 10:24:17;;;;;;;15.30;9.95;;;;;;;12.81;43.29;95169.88;5107813;27;20046;-77
2024/03/09 10:26:45;;;;;;;14.82;10.07;;;;;;;13.54;42.53;95153.16;5106847;27;20027;-79
2024/03/09 10:29:11;;;;;;;13.18;9.30;;;;;;;15.54;38.71;95159.66;5090610;27;20413;-76
2024/03/09 10:31:42;;;;;;;20.67;10.38;;;;;;;15.43;37.93;95153.06;5107190;27;20019;-77
2024/03/09 10:34:08;;;;;;;12.68;9.25;;;;;;;15.54;38.13;95150.56;5125581;27;20110;-80
2024/03/09 10:36:36;;;;;;;17.83;9.40;;;;;;;17.14;35.63;95150.50;5125900;27;20034;-78
2024/03/09 10:39:01;;;;;;;12.88;9.10;;;;;;;17.84;34.05;95141.75;5111340;27;20119;-78
2024/03/09 10:41:27;;;;;;;13.93;9.27;;;;;;;18.29;33.14;95146.78;5134291;27;20101;-78
2024/03/09 10:43:54;;;;;;;12.02;8.82;;;;;;;19.10;32.20;95145.41;5109799;27;20031;-79
2024/03/09 10:46:32;;;;;;;12.40;9.45;;;;;;;19.86;30.92;95146.00;5107665;27;20023;-80
2024/03/09 10:48:58;;;;;;;11.00;7.88;;;;;;;20.39;29.81;95147.44;5106756;27;20019;-80
2024/03/09 10:51:36;;;;;;;11.35;7.97;;;;;;;20.95;29.15;95138.69;5106320;27;20122;-80
2024/03/09 10:54:23;;;;;;;9.40;8.00;;;;;;;21.81;27.62;95138.50;5125657;27;20030;-79
2024/03/09 10:56:51;;;;;;;17.85;10.30;;;;;;;21.27;28.39;95130.16;5089324;28;20026;-78
2024/03/09 10:59:20;;;;;;;12.15;9.13;;;;;;;20.86;28.18;95127.72;5125726;27;20751;-78
2024/03/09 11:01:48;;;;;;;9.40;8.10;;;;;;;21.45;27.09;95130.53;5106443;28;20103;-79
2024/03/09 11:04:15;;;;;;;11.25;8.68;;;;;;;20.59;28.17;95124.28;5106524;28;20381;-77
2024/03/09 11:06:40;;;;;;;10.55;8.77;;;;;;;20.50;28.41;95129.28;5125541;28;20023;-79
2024/03/09 11:09:11;;;;;;;13.93;9.82;;;;;;;20.52;28.51;95121.16;5106115;28;20516;-80
2024/03/09 11:11:38;;;;;;;11.98;9.82;;;;;;;21.83;26.97;95122.72;5108604;28;20050;-78
2024/03/09 11:14:05;;;;;;;9.95;8.23;;;;;;;22.02;26.38;95114.59;5106112;28;20051;-79
2024/03/09 11:16:31;;;;;;;10.85;7.97;;;;;;;22.85;25.25;95101.03;5107193;28;20020;-78
2024/03/09 11:18:56;;;;;;;11.13;8.52;;;;;;;23.67;24.26;95108.88;5114027;28;20050;-77
2024/03/09 11:21:35;;;;;;;11.00;8.00;;;;;;;24.13;24.09;95105.25;5095411;28;20038;-77
2024/03/09 11:24:07;;;;;;;9.32;7.70;;;;;;;24.14;23.77;95100.38;5125284;28;20412;-79